sensor_id;sensor_type;location;lat;lon;timestamp;pressure;altitude;pressure_sealevel;temperature;humidity
70971;BME280;58632;51.718;19.446;2023-02-04T00:00:44;98641.54;;;1.94;100.00
70971;BME280;58632;51.718;19.446;2023-02-04T00:03:27;98647.52;;;1.84;100.00
70971;BME280;58632;51.718;19.446;2023-02-04T00:05:52;98652.94;;;1.74;100.00
70971;BME280;58632;51.718;19.446;2023-02-04T00:08:18;98657.98;;;1.65;100.00
70971;BME280;58632;51.718;19.446;2023-02-04T00:10:43;98665.14;;;1.54;100.00
70971;BME280;58632;51.718;19.446;2023-02-04T00:13:09;98662.95;;;1.39;100.00
70971;BME280;58632;51.718;19.446;2023-02-04T00:15:35;98672.18;;;1.29;100.00
70971;BME280;58632;51.718;19.446;2023-02-04T00:18:00;98679.23;;;1.22;100.00
70971;BME280;58632;51.718;19.446;2023-02-04T00:20:27;98687.89;;;1.15;100.00
70971;BME280;58632;51.718;19.446;2023-02-04T00:22:53;98699.98;;;1.09;100.00
70971;BME280;58632;51.718;19.446;2023-02-04T00:25:19;98710.83;;;1.02;100.00
70971;BME280;58632;51.718;19.446;2023-02-04T00:27:44;98717.86;;;0.94;100.00
70971;BME280;58632;51.718;19.446;2023-02-04T00:30:10;98722.25;;;0.86;100.00
70971;BME280;58632;51.718;19.446;2023-02-04T00:32:36;98728.18;;;0.80;100.00
70971;BME280;58632;51.718;19.446;2023-02-04T00:35:01;98741.23;;;0.74;100.00
70971;BME280;58632;51.718;19.446;2023-02-04T00:37:29;98748.95;;;0.65;100.00
70971;BME280;58632;51.718;19.446;2023-02-04T00:39:55;98751.90;;;0.53;100.00
70971;BME280;58632;51.718;19.446;2023-02-04T00:42:20;98753.21;;;0.43;100.00
70971;BME280;58632;51.718;19.446;2023-02-04T00:44:46;98765.23;;;0.35;100.00
70971;BME280;58632;51.718;19.446;2023-02-04T00:47:12;98770.06;;;0.27;100.00
70971;BME280;58632;51.718;19.446;2023-02-04T00:49:37;98782.96;;;0.21;100.00
70971;BME280;58632;51.718;19.446;2023-02-04T00:52:03;98803.14;;;0.16;100.00
70971;BME280;58632;51.718;19.446;2023-02-04T00:54:28;98813.30;;;0.09;100.00
70971;BME280;58632;51.718;19.446;2023-02-04T00:56:54;98827.26;;;0.05;100.00
70971;BME280;58632;51.718;19.446;2023-02-04T00:59:20;98838.75;;;-0.00;100.00
70971;BME280;58632;51.718;19.446;2023-02-04T01:01:45;98843.56;;;-0.05;100.00
70971;BME280;58632;51.718;19.446;2023-02-04T01:04:11;98846.80;;;-0.10;100.00
70971;BME280;58632;51.718;19.446;2023-02-04T01:06:37;98857.42;;;-0.14;100.00
70971;BME280;58632;51.718;19.446;2023-02-04T01:09:03;98869.02;;;-0.21;100.00
70971;BME280;58632;51.718;19.446;2023-02-04T01:11:29;98872.22;;;-0.30;100.00
70971;BME280;58632;51.718;19.446;2023-02-04T01:13:55;98885.35;;;-0.37;100.00
70971;BME280;58632;51.718;19.446;2023-02-04T01:16:20;98890.47;;;-0.46;100.00
70971;BME280;58632;51.718;19.446;2023-02-04T01:18:46;98896.13;;;-0.53;100.00
70971;BME280;58632;51.718;19.446;2023-02-04T01:21:12;98913.23;;;-0.56;100.00
70971;BME280;58632;51.718;19.446;2023-02-04T01:23:37;98926.25;;;-0.63;100.00
70971;BME280;58632;51.718;19.446;2023-02-04T01:26:03;98937.49;;;-0.72;100.00
70971;BME280;58632;51.718;19.446;2023-02-04T01:28:29;98956.96;;;-0.78;100.00
70971;BME280;58632;51.718;19.446;2023-02-04T01:30:54;98964.00;;;-0.83;100.00
70971;BME280;58632;51.718;19.446;2023-02-04T01:33:20;98975.81;;;-0.88;100.00
70971;BME280;58632;51.718;19.446;2023-02-04T01:35:45;98986.77;;;-0.93;100.00
70971;BME280;58632;51.718;19.446;2023-02-04T01:38:11;99003.64;;;-0.98;100.00
70971;BME280;58632;51.718;19.446;2023-02-04T01:40:37;99010.38;;;-1.04;100.00
70971;BME280;58632;51.718;19.446;2023-02-04T01:43:02;99015.85;;;-1.09;100.00
70971;BME280;58632;51.718;19.446;2023-02-04T01:45:28;99033.68;;;-1.11;100.00
70971;BME280;58632;51.718;19.446;2023-02-04T01:47:55;99047.05;;;-1.15;100.00
70971;BME280;58632;51.718;19.446;2023-02-04T01:50:20;99051.88;;;-1.19;100.00
70971;BME280;58632;51.718;19.446;2023-02-04T01:52:46;99068.95;;;-1.22;100.00
70971;BME280;58632;51.718;19.446;2023-02-04T01:55:13;99085.88;;;-1.24;100.00
70971;BME280;58632;51.718;19.446;2023-02-04T01:57:39;99092.27;;;-1.24;100.00
70971;BME280;58632;51.718;19.446;2023-02-04T02:00:05;99107.35;;;-1.25;100.00
70971;BME280;58632;51.718;19.446;2023-02-04T02:02:45;99124.98;;;-1.26;100.00
70971;BME280;58632;51.718;19.446;2023-02-04T02:05:12;99129.36;;;-1.28;100.00
70971;BME280;58632;51.718;19.446;2023-02-04T02:07:38;99145.85;;;-1.30;100.00
70971;BME280;58632;51.718;19.446;2023-02-04T02:10:04;99157.89;;;-1.31;100.00
70971;BME280;58632;51.718;19.446;2023-02-04T02:12:31;99169.79;;;-1.32;100.00
70971;BME280;58632;51.718;19.446;2023-02-04T02:14:56;99174.89;;;-1.34;100.00
70971;BME280;58632;51.718;19.446;2023-02-04T02:17:23;99192.17;;;-1.36;100.00
70971;BME280;58632;51.718;19.446;2023-02-04T02:19:49;99197.81;;;-1.37;100.00
70971;BME280;58632;51.718;19.446;2023-02-04T02:22:49;99215.58;;;-1.37;100.00
70971;BME280;58632;51.718;19.446;2023-02-04T02:25:13;99231.73;;;-1.41;100.00
70971;BME280;58632;51.718;19.446;2023-02-04T02:27:39;99238.00;;;-1.42;100.00
70971;BME280;58632;51.718;19.446;2023-02-04T02:30:05;99249.00;;;-1.43;100.00
70971;BME280;58632;51.718;19.446;2023-02-04T02:32:32;99255.08;;;-1.44;100.00
70971;BME280;58632;51.718;19.446;2023-02-04T02:34:58;99263.00;;;-1.46;100.00
70971;BME280;58632;51.718;19.446;2023-02-04T02:37:24;99284.48;;;-1.47;100.00
70971;BME280;58632;51.718;19.446;2023-02-04T02:39:49;99300.58;;;-1.49;100.00
70971;BME280;58632;51.718;19.446;2023-02-04T02:42:16;99313.46;;;-1.49;100.00
70971;BME280;58632;51.718;19.446;2023-02-04T02:44:42;99317.10;;;-1.50;100.00
70971;BME280;58632;51.718;19.446;2023-02-04T02:47:11;99334.43;;;-1.52;100.00
70971;BME280;58632;51.718;19.446;2023-02-04T02:49:37;99347.22;;;-1.52;100.00
70971;BME280;58632;51.718;19.446;2023-02-04T02:52:04;99363.11;;;-1.52;100.00
70971;BME280;58632;51.718;19.446;2023-02-04T02:54:30;99377.61;;;-1.52;100.00
70971;BME280;58632;51.718;19.446;2023-02-04T02:56:56;99397.67;;;-1.53;100.00
70971;BME280;58632;51.718;19.446;2023-02-04T02:59:22;99416.81;;;-1.53;100.00
70971;BME280;58632;51.718;19.446;2023-02-04T03:01:50;99428.76;;;-1.51;100.00
70971;BME280;58632;51.718;19.446;2023-02-04T03:04:18;99436.52;;;-1.49;100.00
70971;BME280;58632;51.718;19.446;2023-02-04T03:06:44;99449.64;;;-1.48;100.00
70971;BME280;58632;51.718;19.446;2023-02-04T03:09:10;99470.09;;;-1.48;100.00
70971;BME280;58632;51.718;19.446;2023-02-04T03:11:36;99482.86;;;-1.49;100.00
70971;BME280;58632;51.718;19.446;2023-02-04T03:14:02;99502.08;;;-1.50;100.00
70971;BME280;58632;51.718;19.446;2023-02-04T03:16:28;99499.63;;;-1.50;100.00
70971;BME280;58632;51.718;19.446;2023-02-04T03:18:57;99510.73;;;-1.50;100.00
70971;BME280;58632;51.718;19.446;2023-02-04T03:21:23;99513.31;;;-1.50;100.00
70971;BME280;58632;51.718;19.446;2023-02-04T03:23:49;99528.48;;;-1.52;100.00
70971;BME280;58632;51.718;19.446;2023-02-04T03:26:15;99532.00;;;-1.54;100.00
70971;BME280;58632;51.718;19.446;2023-02-04T03:28:41;99550.09;;;-1.55;100.00
70971;BME280;58632;51.718;19.446;2023-02-04T03:31:07;99557.45;;;-1.54;100.00
70971;BME280;58632;51.718;19.446;2023-02-04T03:33:32;99574.64;;;-1.55;100.00
70971;BME280;58632;51.718;19.446;2023-02-04T03:36:00;99591.88;;;-1.59;100.00
70971;BME280;58632;51.718;19.446;2023-02-04T03:38:25;99605.16;;;-1.61;100.00
70971;BME280;58632;51.718;19.446;2023-02-04T03:40:51;99612.37;;;-1.60;100.00
70971;BME280;58632;51.718;19.446;2023-02-04T03:43:16;99629.17;;;-1.60;100.00
70971;BME280;58632;51.718;19.446;2023-02-04T03:45:42;99635.67;;;-1.60;100.00
70971;BME280;58632;51.718;19.446;2023-02-04T03:48:07;99652.46;;;-1.61;100.00
70971;BME280;58632;51.718;19.446;2023-02-04T03:50:33;99663.73;;;-1.62;100.00
70971;BME280;58632;51.718;19.446;2023-02-04T03:52:58;99671.27;;;-1.64;100.00
70971;BME280;58632;51.718;19.446;2023-02-04T03:55:24;99684.90;;;-1.65;100.00
70971;BME280;58632;51.718;19.446;2023-02-04T03:57:50;99693.81;;;-1.66;100.00
70971;BME280;58632;51.718;19.446;2023-02-04T04:00:16;99708.70;;;-1.67;100.00
70971;BME280;58632;51.718;19.446;2023-02-04T04:02:42;99715.91;;;-1.70;100.00
70971;BME280;58632;51.718;19.446;2023-02-04T04:05:08;99731.10;;;-1.71;100.00
70971;BME280;58632;51.718;19.446;2023-02-04T04:07:34;99742.15;;;-1.71;100.00
70971;BME280;58632;51.718;19.446;2023-02-04T04:09:59;99751.91;;;-1.69;100.00
70971;BME280;58632;51.718;19.446;2023-02-04T04:12:25;99761.90;;;-1.68;100.00
70971;BME280;58632;51.718;19.446;2023-02-04T04:14:50;99768.48;;;-1.67;100.00
70971;BME280;58632;51.718;19.446;2023-02-04T04:17:16;99783.35;;;-1.64;100.00
70971;BME280;58632;51.718;19.446;2023-02-04T04:19:42;99797.79;;;-1.62;100.00
70971;BME280;58632;51.718;19.446;2023-02-04T04:22:09;99810.59;;;-1.61;100.00
70971;BME280;58632;51.718;19.446;2023-02-04T04:24:34;99820.65;;;-1.60;100.00
70971;BME280;58632;51.718;19.446;2023-02-04T04:27:00;99836.45;;;-1.59;100.00
70971;BME280;58632;51.718;19.446;2023-02-04T04:29:26;99829.64;;;-1.59;100.00
70971;BME280;58632;51.718;19.446;2023-02-04T04:31:51;99842.56;;;-1.60;100.00
70971;BME280;58632;51.718;19.446;2023-02-04T04:34:17;99844.77;;;-1.59;100.00
70971;BME280;58632;51.718;19.446;2023-02-04T04:36:43;99862.27;;;-1.60;100.00
70971;BME280;58632;51.718;19.446;2023-02-04T04:39:08;99878.29;;;-1.62;100.00
70971;BME280;58632;51.718;19.446;2023-02-04T04:41:34;99895.90;;;-1.62;100.00
70971;BME280;58632;51.718;19.446;2023-02-04T04:44:00;99899.31;;;-1.66;100.00
70971;BME280;58632;51.718;19.446;2023-02-04T04:46:25;99914.33;;;-1.68;100.00
70971;BME280;58632;51.718;19.446;2023-02-04T04:48:51;99917.87;;;-1.67;100.00
70971;BME280;58632;51.718;19.446;2023-02-04T04:51:17;99918.98;;;-1.68;100.00
70971;BME280;58632;51.718;19.446;2023-02-04T04:53:42;99942.59;;;-1.69;100.00
70971;BME280;58632;51.718;19.446;2023-02-04T04:56:08;99947.67;;;-1.72;100.00
70971;BME280;58632;51.718;19.446;2023-02-04T04:58:34;99960.70;;;-1.77;100.00
70971;BME280;58632;51.718;19.446;2023-02-04T05:00:59;99971.24;;;-1.78;100.00
70971;BME280;58632;51.718;19.446;2023-02-04T05:03:25;99975.34;;;-1.77;100.00
70971;BME280;58632;51.718;19.446;2023-02-04T05:05:51;99989.30;;;-1.80;100.00
70971;BME280;58632;51.718;19.446;2023-02-04T05:08:16;99995.40;;;-1.83;100.00
70971;BME280;58632;51.718;19.446;2023-02-04T05:10:43;100014.15;;;-1.85;100.00
70971;BME280;58632;51.718;19.446;2023-02-04T05:13:09;100021.06;;;-1.86;100.00
70971;BME280;58632;51.718;19.446;2023-02-04T05:15:35;100033.61;;;-1.84;100.00
70971;BME280;58632;51.718;19.446;2023-02-04T05:18:01;100042.98;;;-1.84;100.00
70971;BME280;58632;51.718;19.446;2023-02-04T05:20:27;100049.02;;;-1.84;100.00
70971;BME280;58632;51.718;19.446;2023-02-04T05:22:53;100051.84;;;-1.85;100.00
70971;BME280;58632;51.718;19.446;2023-02-04T05:25:20;100065.48;;;-1.85;100.00
70971;BME280;58632;51.718;19.446;2023-02-04T05:27:46;100072.77;;;-1.85;100.00
70971;BME280;58632;51.718;19.446;2023-02-04T05:30:12;100084.08;;;-1.84;100.00
70971;BME280;58632;51.718;19.446;2023-02-04T05:32:38;100100.09;;;-1.83;100.00
70971;BME280;58632;51.718;19.446;2023-02-04T05:35:04;100108.08;;;-1.84;100.00
70971;BME280;58632;51.718;19.446;2023-02-04T05:37:30;100121.50;;;-1.84;100.00
70971;BME280;58632;51.718;19.446;2023-02-04T05:39:55;100125.39;;;-1.83;100.00
70971;BME280;58632;51.718;19.446;2023-02-04T05:42:21;100144.33;;;-1.83;100.00
70971;BME280;58632;51.718;19.446;2023-02-04T05:44:47;100156.99;;;-1.82;100.00
70971;BME280;58632;51.718;19.446;2023-02-04T05:47:12;100170.33;;;-1.81;100.00
70971;BME280;58632;51.718;19.446;2023-02-04T05:49:38;100182.04;;;-1.81;100.00
70971;BME280;58632;51.718;19.446;2023-02-04T05:52:03;100186.27;;;-1.84;100.00
70971;BME280;58632;51.718;19.446;2023-02-04T05:54:29;100191.52;;;-1.84;100.00
70971;BME280;58632;51.718;19.446;2023-02-04T05:56:54;100200.02;;;-1.83;100.00
70971;BME280;58632;51.718;19.446;2023-02-04T05:59:20;100207.39;;;-1.82;100.00
70971;BME280;58632;51.718;19.446;2023-02-04T06:01:45;100211.94;;;-1.83;100.00
70971;BME280;58632;51.718;19.446;2023-02-04T06:04:11;100223.80;;;-1.83;100.00
70971;BME280;58632;51.718;19.446;2023-02-04T06:06:37;100227.52;;;-1.83;100.00
70971;BME280;58632;51.718;19.446;2023-02-04T06:09:02;100241.40;;;-1.84;100.00
70971;BME280;58632;51.718;19.446;2023-02-04T06:11:28;100249.89;;;-1.83;100.00
70971;BME280;58632;51.718;19.446;2023-02-04T06:13:53;100263.05;;;-1.84;100.00
70971;BME280;58632;51.718;19.446;2023-02-04T06:16:19;100264.16;;;-1.84;100.00
70971;BME280;58632;51.718;19.446;2023-02-04T06:18:44;100273.15;;;-1.85;100.00
70971;BME280;58632;51.718;19.446;2023-02-04T06:21:10;100281.55;;;-1.84;100.00
70971;BME280;58632;51.718;19.446;2023-02-04T06:23:36;100287.83;;;-1.84;100.00
70971;BME280;58632;51.718;19.446;2023-02-04T06:26:01;100294.94;;;-1.85;100.00
70971;BME280;58632;51.718;19.446;2023-02-04T06:28:27;100297.42;;;-1.87;100.00
70971;BME280;58632;51.718;19.446;2023-02-04T06:30:52;100316.25;;;-1.92;100.00
70971;BME280;58632;51.718;19.446;2023-02-04T06:33:18;100322.80;;;-1.93;100.00
70971;BME280;58632;51.718;19.446;2023-02-04T06:35:45;100322.45;;;-1.92;100.00
70971;BME280;58632;51.718;19.446;2023-02-04T06:38:11;100328.11;;;-1.92;100.00
70971;BME280;58632;51.718;19.446;2023-02-04T06:40:37;100341.73;;;-1.92;100.00
70971;BME280;58632;51.718;19.446;2023-02-04T06:43:02;100343.21;;;-1.94;100.00
70971;BME280;58632;51.718;19.446;2023-02-04T06:45:28;100351.56;;;-1.94;100.00
70971;BME280;58632;51.718;19.446;2023-02-04T06:47:54;100355.01;;;-1.96;100.00
70971;BME280;58632;51.718;19.446;2023-02-04T06:50:19;100359.44;;;-2.00;100.00
70971;BME280;58632;51.718;19.446;2023-02-04T06:52:45;100368.14;;;-2.06;100.00
70971;BME280;58632;51.718;19.446;2023-02-04T06:55:11;100374.91;;;-2.13;100.00
70971;BME280;58632;51.718;19.446;2023-02-04T06:57:37;100379.39;;;-2.20;100.00
70971;BME280;58632;51.718;19.446;2023-02-04T07:00:02;100382.57;;;-2.23;100.00
70971;BME280;58632;51.718;19.446;2023-02-04T07:02:28;100389.14;;;-2.24;100.00
70971;BME280;58632;51.718;19.446;2023-02-04T07:04:54;100393.61;;;-2.25;100.00
70971;BME280;58632;51.718;19.446;2023-02-04T07:07:19;100400.91;;;-2.23;100.00
70971;BME280;58632;51.718;19.446;2023-02-04T07:09:45;100402.38;;;-2.20;100.00
70971;BME280;58632;51.718;19.446;2023-02-04T07:12:11;100401.98;;;-2.20;100.00
70971;BME280;58632;51.718;19.446;2023-02-04T07:14:36;100406.28;;;-2.17;100.00
70971;BME280;58632;51.718;19.446;2023-02-04T07:17:02;100410.35;;;-2.15;100.00
70971;BME280;58632;51.718;19.446;2023-02-04T07:19:28;100414.05;;;-2.10;100.00
70971;BME280;58632;51.718;19.446;2023-02-04T07:21:53;100423.09;;;-2.07;100.00
70971;BME280;58632;51.718;19.446;2023-02-04T07:24:21;100427.80;;;-2.03;100.00
70971;BME280;58632;51.718;19.446;2023-02-04T07:26:47;100436.88;;;-1.90;100.00
70971;BME280;58632;51.718;19.446;2023-02-04T07:29:12;100442.27;;;-1.78;100.00
70971;BME280;58632;51.718;19.446;2023-02-04T07:31:38;100446.48;;;-1.66;100.00
70971;BME280;58632;51.718;19.446;2023-02-04T07:34:03;100446.23;;;-1.57;100.00
70971;BME280;58632;51.718;19.446;2023-02-04T07:36:29;100447.69;;;-1.48;100.00
70971;BME280;58632;51.718;19.446;2023-02-04T07:38:54;100455.14;;;-1.39;100.00
70971;BME280;58632;51.718;19.446;2023-02-04T07:41:20;100466.45;;;-1.28;100.00
70971;BME280;58632;51.718;19.446;2023-02-04T07:43:46;100474.06;;;-1.19;100.00
70971;BME280;58632;51.718;19.446;2023-02-04T07:46:11;100480.14;;;-1.13;100.00
70971;BME280;58632;51.718;19.446;2023-02-04T07:48:37;100487.88;;;-1.05;100.00
70971;BME280;58632;51.718;19.446;2023-02-04T07:51:03;100491.30;;;-0.94;100.00
70971;BME280;58632;51.718;19.446;2023-02-04T07:53:29;100495.56;;;-0.86;100.00
70971;BME280;58632;51.718;19.446;2023-02-04T07:55:54;100494.55;;;-0.74;100.00
70971;BME280;58632;51.718;19.446;2023-02-04T07:58:20;100502.41;;;-0.71;100.00
70971;BME280;58632;51.718;19.446;2023-02-04T08:00:45;100507.20;;;-0.71;100.00
70971;BME280;58632;51.718;19.446;2023-02-04T08:03:11;100505.45;;;-0.70;100.00
70971;BME280;58632;51.718;19.446;2023-02-04T08:05:36;100507.61;;;-0.61;100.00
70971;BME280;58632;51.718;19.446;2023-02-04T08:08:02;100507.39;;;-0.47;100.00
70971;BME280;58632;51.718;19.446;2023-02-04T08:10:28;100515.45;;;-0.36;100.00
70971;BME280;58632;51.718;19.446;2023-02-04T08:12:53;100520.79;;;-0.26;100.00
70971;BME280;58632;51.718;19.446;2023-02-04T08:15:19;100530.86;;;-0.24;100.00
70971;BME280;58632;51.718;19.446;2023-02-04T08:17:45;100532.75;;;-0.35;100.00
70971;BME280;58632;51.718;19.446;2023-02-04T08:20:10;100541.83;;;-0.31;100.00
70971;BME280;58632;51.718;19.446;2023-02-04T08:22:36;100547.96;;;-0.32;100.00
70971;BME280;58632;51.718;19.446;2023-02-04T08:25:02;100549.92;;;-0.46;100.00
70971;BME280;58632;51.718;19.446;2023-02-04T08:27:29;100552.78;;;-0.54;100.00
70971;BME280;58632;51.718;19.446;2023-02-04T08:29:55;100562.59;;;-0.57;100.00
70971;BME280;58632;51.718;19.446;2023-02-04T08:32:20;100566.80;;;-0.65;100.00
70971;BME280;58632;51.718;19.446;2023-02-04T08:34:46;100567.08;;;-0.61;100.00
70971;BME280;58632;51.718;19.446;2023-02-04T08:37:13;100576.16;;;-0.60;100.00
70971;BME280;58632;51.718;19.446;2023-02-04T08:39:38;100585.51;;;-0.56;100.00
70971;BME280;58632;51.718;19.446;2023-02-04T08:42:08;100589.48;;;-0.48;100.00
70971;BME280;58632;51.718;19.446;2023-02-04T08:44:34;100599.21;;;-0.42;100.00
70971;BME280;58632;51.718;19.446;2023-02-04T08:46:59;100603.40;;;-0.45;100.00
70971;BME280;58632;51.718;19.446;2023-02-04T08:49:25;100602.55;;;-0.50;100.00
70971;BME280;58632;51.718;19.446;2023-02-04T08:51:50;100609.23;;;-0.48;100.00
70971;BME280;58632;51.718;19.446;2023-02-04T08:54:16;100609.31;;;-0.45;100.00
70971;BME280;58632;51.718;19.446;2023-02-04T08:56:42;100620.60;;;-0.41;100.00
70971;BME280;58632;51.718;19.446;2023-02-04T08:59:08;100625.89;;;-0.40;100.00
70971;BME280;58632;51.718;19.446;2023-02-04T09:01:33;100631.88;;;-0.33;100.00
70971;BME280;58632;51.718;19.446;2023-02-04T09:03:59;100647.95;;;-0.25;100.00
70971;BME280;58632;51.718;19.446;2023-02-04T09:06:24;100649.98;;;-0.20;100.00
70971;BME280;58632;51.718;19.446;2023-02-04T09:08:50;100656.13;;;-0.14;100.00
70971;BME280;58632;51.718;19.446;2023-02-04T09:11:15;100662.11;;;-0.03;100.00
70971;BME280;58632;51.718;19.446;2023-02-04T09:13:41;100669.38;;;-0.04;100.00
70971;BME280;58632;51.718;19.446;2023-02-04T09:16:07;100677.77;;;0.00;100.00
70971;BME280;58632;51.718;19.446;2023-02-04T09:18:32;100677.02;;;0.14;100.00
70971;BME280;58632;51.718;19.446;2023-02-04T09:20:59;100685.67;;;0.34;100.00
70971;BME280;58632;51.718;19.446;2023-02-04T09:23:24;100695.73;;;0.59;100.00
70971;BME280;58632;51.718;19.446;2023-02-04T09:25:50;100693.22;;;0.73;100.00
70971;BME280;58632;51.718;19.446;2023-02-04T09:28:15;100693.41;;;0.91;100.00
70971;BME280;58632;51.718;19.446;2023-02-04T09:30:43;100700.47;;;1.18;100.00
70971;BME280;58632;51.718;19.446;2023-02-04T09:33:09;100701.26;;;1.37;100.00
70971;BME280;58632;51.718;19.446;2023-02-04T09:35:35;100705.26;;;1.43;100.00
70971;BME280;58632;51.718;19.446;2023-02-04T09:38:01;100708.52;;;1.45;100.00
70971;BME280;58632;51.718;19.446;2023-02-04T09:40:28;100710.33;;;1.57;100.00
70971;BME280;58632;51.718;19.446;2023-02-04T09:42:55;100708.26;;;1.62;100.00
70971;BME280;58632;51.718;19.446;2023-02-04T09:45:22;100718.56;;;1.66;100.00
70971;BME280;58632;51.718;19.446;2023-02-04T09:47:49;100721.95;;;1.74;100.00
70971;BME280;58632;51.718;19.446;2023-02-04T09:50:17;100721.42;;;1.75;100.00
70971;BME280;58632;51.718;19.446;2023-02-04T09:52:43;100723.27;;;1.74;100.00
70971;BME280;58632;51.718;19.446;2023-02-04T09:55:12;100723.86;;;1.74;100.00
70971;BME280;58632;51.718;19.446;2023-02-04T09:57:38;100727.31;;;1.83;100.00
70971;BME280;58632;51.718;19.446;2023-02-04T10:00:09;100729.33;;;2.01;100.00
70971;BME280;58632;51.718;19.446;2023-02-04T10:02:38;100736.54;;;2.11;100.00
70971;BME280;58632;51.718;19.446;2023-02-04T10:05:05;100741.02;;;2.21;100.00
70971;BME280;58632;51.718;19.446;2023-02-04T10:07:30;100747.14;;;2.21;100.00
70971;BME280;58632;51.718;19.446;2023-02-04T10:09:56;100750.70;;;2.17;100.00
70971;BME280;58632;51.718;19.446;2023-02-04T10:12:23;100754.18;;;2.07;100.00
70971;BME280;58632;51.718;19.446;2023-02-04T10:14:49;100768.40;;;1.93;100.00
70971;BME280;58632;51.718;19.446;2023-02-04T10:17:16;100767.80;;;1.76;100.00
70971;BME280;58632;51.718;19.446;2023-02-04T10:19:42;100768.31;;;1.65;100.00
70971;BME280;58632;51.718;19.446;2023-02-04T10:22:14;100771.27;;;1.50;100.00
70971;BME280;58632;51.718;19.446;2023-02-04T10:24:41;100774.38;;;1.39;100.00
70971;BME280;58632;51.718;19.446;2023-02-04T10:27:07;100773.73;;;1.34;100.00
70971;BME280;58632;51.718;19.446;2023-02-04T10:29:33;100770.65;;;1.30;100.00
70971;BME280;58632;51.718;19.446;2023-02-04T10:31:58;100774.52;;;1.33;100.00
70971;BME280;58632;51.718;19.446;2023-02-04T10:34:34;100780.00;;;1.40;100.00
70971;BME280;58632;51.718;19.446;2023-02-04T10:37:10;100780.85;;;1.46;100.00
70971;BME280;58632;51.718;19.446;2023-02-04T10:39:40;100787.35;;;1.48;100.00
70971;BME280;58632;51.718;19.446;2023-02-04T10:42:17;100787.53;;;1.53;100.00
70971;BME280;58632;51.718;19.446;2023-02-04T10:44:45;100780.48;;;1.50;100.00
70971;BME280;58632;51.718;19.446;2023-02-04T10:47:15;100782.70;;;1.47;100.00
70971;BME280;58632;51.718;19.446;2023-02-04T10:52:34;100781.17;;;1.86;100.00
70971;BME280;58632;51.718;19.446;2023-02-04T10:55:02;100784.91;;;2.12;100.00
70971;BME280;58632;51.718;19.446;2023-02-04T10:57:28;100779.54;;;2.34;100.00
70971;BME280;58632;51.718;19.446;2023-02-04T10:59:55;100786.76;;;2.45;100.00
70971;BME280;58632;51.718;19.446;2023-02-04T11:02:36;100789.70;;;2.43;100.00
70971;BME280;58632;51.718;19.446;2023-02-04T11:05:08;100792.67;;;2.22;100.00
70971;BME280;58632;51.718;19.446;2023-02-04T11:07:35;100796.27;;;1.93;100.00
70971;BME280;58632;51.718;19.446;2023-02-04T11:10:01;100802.98;;;1.64;100.00
70971;BME280;58632;51.718;19.446;2023-02-04T11:12:43;100809.99;;;1.49;100.00
70971;BME280;58632;51.718;19.446;2023-02-04T11:18:03;100809.30;;;1.39;100.00
70971;BME280;58632;51.718;19.446;2023-02-04T11:20:31;100807.35;;;1.34;100.00
70971;BME280;58632;51.718;19.446;2023-02-04T11:22:57;100807.54;;;1.36;100.00
70971;BME280;58632;51.718;19.446;2023-02-04T11:25:37;100810.13;;;1.26;100.00
70971;BME280;58632;51.718;19.446;2023-02-04T11:28:23;100801.42;;;1.18;100.00
70971;BME280;58632;51.718;19.446;2023-02-04T11:31:01;100782.38;;;1.08;100.00
70971;BME280;58632;51.718;19.446;2023-02-04T11:33:37;100787.87;;;1.10;100.00
70971;BME280;58632;51.718;19.446;2023-02-04T11:36:06;100790.21;;;1.18;100.00
70971;BME280;58632;51.718;19.446;2023-02-04T11:38:32;100787.56;;;1.18;100.00
70971;BME280;58632;51.718;19.446;2023-02-04T11:40:58;100793.90;;;1.14;100.00
70971;BME280;58632;51.718;19.446;2023-02-04T11:43:24;100791.55;;;1.06;100.00
70971;BME280;58632;51.718;19.446;2023-02-04T11:46:11;100794.95;;;1.11;100.00
70971;BME280;58632;51.718;19.446;2023-02-04T11:48:37;100792.35;;;1.47;100.00
70971;BME280;58632;51.718;19.446;2023-02-04T11:51:08;100790.27;;;1.72;100.00
70971;BME280;58632;51.718;19.446;2023-02-04T11:53:35;100794.10;;;1.81;100.00
70971;BME280;58632;51.718;19.446;2023-02-04T11:56:01;100793.13;;;1.66;100.00
70971;BME280;58632;51.718;19.446;2023-02-04T11:58:27;100792.89;;;1.59;100.00
70971;BME280;58632;51.718;19.446;2023-02-04T12:00:53;100798.56;;;1.57;100.00
70971;BME280;58632;51.718;19.446;2023-02-04T12:03:23;100794.42;;;1.47;100.00
70971;BME280;58632;51.718;19.446;2023-02-04T12:05:49;100797.18;;;1.41;100.00
70971;BME280;58632;51.718;19.446;2023-02-04T12:11:01;100795.90;;;1.56;100.00
70971;BME280;58632;51.718;19.446;2023-02-04T12:13:27;100796.45;;;1.64;100.00
70971;BME280;58632;51.718;19.446;2023-02-04T12:15:54;100795.77;;;1.81;100.00
70971;BME280;58632;51.718;19.446;2023-02-04T12:18:21;100796.30;;;1.86;100.00
70971;BME280;58632;51.718;19.446;2023-02-04T12:20:47;100795.27;;;1.68;100.00
70971;BME280;58632;51.718;19.446;2023-02-04T12:23:13;100797.59;;;1.65;100.00
70971;BME280;58632;51.718;19.446;2023-02-04T12:25:38;100792.92;;;1.64;100.00
70971;BME280;58632;51.718;19.446;2023-02-04T12:28:04;100793.48;;;1.75;100.00
70971;BME280;58632;51.718;19.446;2023-02-04T12:30:30;100805.98;;;1.65;100.00
70971;BME280;58632;51.718;19.446;2023-02-04T12:32:56;100810.67;;;1.55;100.00
70971;BME280;58632;51.718;19.446;2023-02-04T12:35:22;100817.81;;;1.61;100.00
70971;BME280;58632;51.718;19.446;2023-02-04T12:37:47;100820.05;;;1.62;100.00
70971;BME280;58632;51.718;19.446;2023-02-04T12:40:14;100821.31;;;1.63;100.00
70971;BME280;58632;51.718;19.446;2023-02-04T12:42:40;100822.86;;;1.60;100.00